createdAt,value
2019-01-21T00:01:18.424Z,32.47
2019-01-21T00:03:47.033Z,28.37
2019-01-21T00:06:15.472Z,26.60
2019-01-21T00:08:43.925Z,29.00
2019-01-21T00:11:12.365Z,26.90
2019-01-21T00:13:40.766Z,29.03
2019-01-21T00:16:09.245Z,29.57
2019-01-21T00:18:37.603Z,27.97
2019-01-21T00:21:06.030Z,32.13
2019-01-21T00:23:34.577Z,30.03
2019-01-21T00:26:02.984Z,30.70
2019-01-21T00:28:31.329Z,28.30
2019-01-21T00:30:59.833Z,30.43
2019-01-21T00:33:28.323Z,32.23
2019-01-21T00:35:56.784Z,33.27
2019-01-21T00:38:25.218Z,29.73
2019-01-21T00:40:54.078Z,30.53
2019-01-21T00:43:22.554Z,31.17
2019-01-21T00:45:50.931Z,29.43
2019-01-21T00:48:19.638Z,30.60
2019-01-21T00:50:48.117Z,27.90
2019-01-21T00:53:16.507Z,29.50
2019-01-21T00:55:44.964Z,28.33
2019-01-21T00:58:13.401Z,26.77
2019-01-21T01:00:41.779Z,29.17
2019-01-21T01:03:10.313Z,33.13
2019-01-21T01:05:38.828Z,29.33
2019-01-21T01:08:07.319Z,28.00
2019-01-21T01:10:35.659Z,30.80
2019-01-21T01:13:04.108Z,30.07
2019-01-21T01:15:32.569Z,28.37
2019-01-21T01:18:00.931Z,29.83
2019-01-21T01:20:29.329Z,28.43
2019-01-21T01:22:57.699Z,30.53
2019-01-21T01:25:26.122Z,27.73
2019-01-21T01:27:54.488Z,30.73
2019-01-21T01:30:24.257Z,33.77
2019-01-21T01:32:52.718Z,27.83
2019-01-21T01:35:21.143Z,28.97
2019-01-21T01:37:49.692Z,33.07
2019-01-21T01:40:18.722Z,30.80
2019-01-21T01:42:47.374Z,27.97
2019-01-21T01:45:17.620Z,31.30
2019-01-21T01:47:46.148Z,30.37
2019-01-21T01:50:14.623Z,30.13
2019-01-21T01:52:43.216Z,32.10
2019-01-21T01:55:11.685Z,28.47
2019-01-21T01:57:40.123Z,29.70
2019-01-21T02:00:10.149Z,30.10
2019-01-21T02:02:38.617Z,30.60
2019-01-21T02:05:07.083Z,29.73
2019-01-21T02:07:35.533Z,28.43
2019-01-21T02:10:04.429Z,29.03
2019-01-21T02:12:32.866Z,31.73
2019-01-21T02:15:01.662Z,30.87
2019-01-21T02:17:30.019Z,29.47
2019-01-21T02:19:58.355Z,29.00
2019-01-21T02:22:27.283Z,29.23
2019-01-21T02:24:55.623Z,27.90
2019-01-21T02:27:28.463Z,27.73
2019-01-21T02:30:16.159Z,27.53
2019-01-21T02:33:15.665Z,26.27
2019-01-21T02:35:54.636Z,28.67
2019-01-21T02:38:40.624Z,30.63
2019-01-21T02:41:26.986Z,31.80
2019-01-21T02:44:11.189Z,26.30
2019-01-21T02:46:57.624Z,28.77
2019-01-21T02:49:34.930Z,29.73
2019-01-21T02:52:22.668Z,28.13
2019-01-21T02:55:19.485Z,29.83
2019-01-21T02:58:05.644Z,29.93
2019-01-21T03:00:43.409Z,28.03
2019-01-21T03:03:33.822Z,32.40
2019-01-21T03:06:20.619Z,34.97
2019-01-21T03:09:06.765Z,28.67
2019-01-21T03:11:47.968Z,28.30
2019-01-21T03:14:20.386Z,29.87
2019-01-21T03:17:10.828Z,29.00
2019-01-21T03:19:42.332Z,33.67
2019-01-21T03:22:31.642Z,32.90
2019-01-21T03:25:14.217Z,32.07
2019-01-21T03:28:08.812Z,31.37
2019-01-21T03:30:51.121Z,30.20
2019-01-21T03:33:58.816Z,30.00
2019-01-21T03:36:46.507Z,26.83
2019-01-21T03:39:40.408Z,31.53
2019-01-21T03:42:14.626Z,30.13
2019-01-21T03:45:00.837Z,28.83
2019-01-21T03:47:51.705Z,31.37
2019-01-21T03:50:45.371Z,31.23
2019-01-21T03:53:18.940Z,30.90
2019-01-21T03:55:47.967Z,32.20
2019-01-21T03:58:34.429Z,26.10
2019-01-21T04:01:16.231Z,32.90
2019-01-21T04:03:52.201Z,32.80
2019-01-21T04:06:23.284Z,30.83
2019-01-21T04:08:59.858Z,30.40
2019-01-21T04:11:32.811Z,28.10
2019-01-21T04:14:19.173Z,30.77
2019-01-21T04:17:03.168Z,29.83
2019-01-21T04:19:51.057Z,30.67
2019-01-21T04:22:41.496Z,31.03
2019-01-21T04:25:29.229Z,28.70
2019-01-21T04:28:19.369Z,32.40
2019-01-21T04:30:52.547Z,35.63
2019-01-21T04:33:26.722Z,34.70
2019-01-21T04:36:06.347Z,30.23
2019-01-21T04:38:44.129Z,33.10
2019-01-21T04:41:17.362Z,34.73
2019-01-21T04:44:08.905Z,31.50
2019-01-21T04:46:52.680Z,35.37
2019-01-21T04:49:43.533Z,35.33
2019-01-21T04:52:16.540Z,34.37
2019-01-21T04:55:01.463Z,35.23
2019-01-21T04:57:55.251Z,34.93
2019-01-21T05:00:41.380Z,36.57
2019-01-21T05:03:44.253Z,35.20
2019-01-21T05:06:38.219Z,36.07
2019-01-21T05:09:13.004Z,33.60
2019-01-21T05:11:59.514Z,39.03
2019-01-21T05:14:50.212Z,33.77
2019-01-21T05:17:26.248Z,32.13
2019-01-21T05:20:31.882Z,34.20
2019-01-21T05:23:07.020Z,35.53
2019-01-21T05:25:50.899Z,34.33
2019-01-21T05:28:33.649Z,31.40
2019-01-21T05:31:30.658Z,32.77
2019-01-21T05:34:09.576Z,34.53
2019-01-21T05:36:50.271Z,33.63
2019-01-21T05:39:41.163Z,33.27
2019-01-21T05:42:27.709Z,35.23
2019-01-21T05:45:03.602Z,38.53
2019-01-21T05:48:09.495Z,33.40
2019-01-21T05:50:54.708Z,36.07
2019-01-21T05:53:45.364Z,38.30
2019-01-21T05:56:36.733Z,36.00
2019-01-21T05:59:26.385Z,39.97
2019-01-21T06:01:58.533Z,37.83
2019-01-21T06:04:58.419Z,40.23
2019-01-21T06:07:49.454Z,35.03
2019-01-21T06:10:37.233Z,38.20
2019-01-21T06:13:40.410Z,39.97
2019-01-21T06:16:28.154Z,38.17
2019-01-21T06:19:14.275Z,37.87
2019-01-21T06:21:50.428Z,36.10
2019-01-21T06:24:23.055Z,34.43
2019-01-21T06:26:57.330Z,39.40
2019-01-21T06:29:31.623Z,36.20
2019-01-21T06:32:25.034Z,40.53
2019-01-21T06:35:00.165Z,35.50
2019-01-21T06:37:46.656Z,37.00
2019-01-21T06:40:28.704Z,34.87
2019-01-21T06:43:04.320Z,37.10
2019-01-21T06:45:46.016Z,38.67
2019-01-21T06:48:32.841Z,39.00
2019-01-21T06:51:09.535Z,38.13
2019-01-21T06:53:55.936Z,37.93
2019-01-21T06:56:49.868Z,38.30
2019-01-21T06:59:31.217Z,38.57
2019-01-21T07:02:01.973Z,38.90
2019-01-21T07:04:34.459Z,39.87
2019-01-21T07:07:16.192Z,41.80
2019-01-21T07:10:07.136Z,39.60
2019-01-21T07:12:53.319Z,43.30
2019-01-21T07:15:43.778Z,43.73
2019-01-21T07:18:31.448Z,43.27
2019-01-21T07:21:11.587Z,40.83
2019-01-21T07:24:05.505Z,42.13
2019-01-21T07:26:47.662Z,44.43
2019-01-21T07:29:34.043Z,43.30
2019-01-21T07:32:18.291Z,45.63
2019-01-21T07:34:51.503Z,48.20
2019-01-21T07:37:54.326Z,47.60
2019-01-21T07:40:40.456Z,47.77
2019-01-21T07:43:34.217Z,47.70
2019-01-21T07:46:11.777Z,48.93
2019-01-21T07:49:17.375Z,42.77
2019-01-21T07:52:04.089Z,51.17
2019-01-21T07:54:41.625Z,47.50
2019-01-21T07:57:32.245Z,43.17
2019-01-21T08:00:35.001Z,44.77
2019-01-21T08:03:25.891Z,41.43
2019-01-21T08:06:12.436Z,51.40
2019-01-21T08:08:53.789Z,46.93
2019-01-21T08:11:34.536Z,45.57
2019-01-21T08:14:08.765Z,46.93
2019-01-21T08:17:11.447Z,55.37
2019-01-21T08:19:57.810Z,51.43
2019-01-21T08:22:44.120Z,53.70
2019-01-21T08:25:26.655Z,50.53
2019-01-21T08:28:11.938Z,50.07
2019-01-21T08:30:55.842Z,53.27
2019-01-21T08:33:37.973Z,50.10
2019-01-21T08:36:16.861Z,49.47
2019-01-21T08:39:10.500Z,46.13
2019-01-21T08:41:52.295Z,48.13
2019-01-21T08:44:55.863Z,49.97
2019-01-21T08:47:44.053Z,45.97
2019-01-21T08:50:32.937Z,49.33
2019-01-21T08:53:19.586Z,47.77
2019-01-21T08:56:07.335Z,50.63
2019-01-21T08:58:40.291Z,46.37
2019-01-21T09:01:31.085Z,51.73
2019-01-21T09:04:24.695Z,51.63
2019-01-21T09:07:06.951Z,49.73
2019-01-21T09:09:47.497Z,49.53
2019-01-21T09:12:35.564Z,49.87
2019-01-21T09:15:18.574Z,48.83
2019-01-21T09:18:00.816Z,47.30
2019-01-21T09:20:47.367Z,47.93
2019-01-21T09:23:22.057Z,50.90
2019-01-21T09:26:01.127Z,49.20
2019-01-21T09:28:40.421Z,54.40
2019-01-21T09:31:17.853Z,52.07
2019-01-21T09:34:03.406Z,49.77
2019-01-21T09:36:54.032Z,54.20
2019-01-21T09:39:40.558Z,46.17
2019-01-21T09:42:28.450Z,46.60
2019-01-21T09:45:08.080Z,48.90
2019-01-21T09:48:02.857Z,44.83
2019-01-21T09:50:43.336Z,45.30
2019-01-21T09:53:23.494Z,46.60
2019-01-21T09:56:03.716Z,46.50
2019-01-21T10:01:28.056Z,44.00
2019-01-21T10:04:08.529Z,43.53
2019-01-21T10:06:50.955Z,47.80
2019-01-21T10:09:31.457Z,45.47
2019-01-21T10:12:16.005Z,46.73
2019-01-21T10:17:49.543Z,42.03
2019-01-21T10:23:44.459Z,42.90
2019-01-21T10:26:32.280Z,42.93
2019-01-21T10:29:20.515Z,46.57
2019-01-21T10:32:08.354Z,46.07
2019-01-21T10:34:56.266Z,39.23
2019-01-21T10:37:44.347Z,44.13
2019-01-21T10:49:57.278Z,41.17
2019-01-21T11:48:14.736Z,38.60
2019-01-21T13:56:28.196Z,20.83
2019-01-21T14:01:58.297Z,22.17
2019-01-21T14:04:38.510Z,24.07
2019-01-21T14:07:26.471Z,16.97
2019-01-21T14:13:07.876Z,14.07
2019-01-21T14:21:56.561Z,12.33
2019-01-21T14:24:44.454Z,10.23
2019-01-21T14:33:28.280Z,18.87
2019-01-21T14:39:24.919Z,11.07
2019-01-21T14:42:12.851Z,14.97
2019-01-21T14:45:02.705Z,12.30
2019-01-21T14:47:50.953Z,12.90
2019-01-21T17:27:14.472Z,74.23
2019-01-21T17:29:43.798Z,72.53
2019-01-21T17:32:12.478Z,80.53
2019-01-21T17:35:00.401Z,81.90
2019-01-21T17:37:48.367Z,70.00
2019-01-21T17:40:36.232Z,64.23
2019-01-21T17:43:24.909Z,67.00
2019-01-21T17:49:10.054Z,74.03
2019-01-21T17:51:58.221Z,70.30
2019-01-21T17:54:47.238Z,66.97
2019-01-21T18:13:07.556Z,70.77
2019-01-21T20:03:50.857Z,53.10
2019-01-21T20:06:25.951Z,53.67
2019-01-21T20:09:17.210Z,49.40
2019-01-21T20:12:05.404Z,52.53
2019-01-21T20:14:53.809Z,49.23
2019-01-21T20:17:26.262Z,49.10
2019-01-21T20:19:55.217Z,50.43
2019-01-21T20:22:24.685Z,47.47
2019-01-21T20:31:09.739Z,49.20
2019-01-21T20:34:04.964Z,49.77
2019-01-21T20:37:07.724Z,49.57
2019-01-21T20:39:42.272Z,48.13
2019-01-21T20:46:06.778Z,47.97
2019-01-21T20:48:54.902Z,52.13
2019-01-21T20:51:43.146Z,44.87
2019-01-21T20:54:33.466Z,47.33
2019-01-21T20:57:36.217Z,46.37
2019-01-21T21:00:11.057Z,41.60
2019-01-21T21:49:05.978Z,41.53
2019-01-21T21:51:37.406Z,44.43
2019-01-21T21:54:25.343Z,43.93
2019-01-21T21:57:15.512Z,39.27
2019-01-21T22:00:03.865Z,42.63
2019-01-21T23:13:14.406Z,54.77
2019-01-21T23:16:02.226Z,48.43
2019-01-21T23:18:52.337Z,51.37
2019-01-21T23:21:41.975Z,57.27
2019-01-21T23:24:29.936Z,55.67
2019-01-21T23:27:17.961Z,54.20
2019-01-21T23:30:07.077Z,49.53
2019-01-21T23:32:54.866Z,48.07
2019-01-21T23:35:42.811Z,51.13
2019-01-21T23:38:30.694Z,54.67
2019-01-21T23:41:18.567Z,53.43
2019-01-21T23:44:06.470Z,50.97
2019-01-21T23:46:54.240Z,49.63
2019-01-21T23:49:42.025Z,55.17
2019-01-21T23:52:29.877Z,53.13
2019-01-21T23:55:20.460Z,52.53
2019-01-21T23:58:08.265Z,62.93
